KAWM

West Memphis Municipal Airport

West Memphis, Arkansas, USA
METAR KAWM 200053Z AUTO 18013KT 10SM FEW027 OVC037 03/M04 A3016 RMK AO2 SLP215 T00281039 TSNO
Observed Flight Rules
Jan-20 @ 00:53 UTC (32 minutes ago) Visual Flight Rules
Wind Visibility Clouds
180° at 13 knots 10 miles
  • Few at 2,700' AGL
  • Overcast at 3,700' AGL
Temperatures Readings
Current 3°C / 37°F
Dewpoint -4°C / 25°F
Humidity 60%
Altimeter 30.16" Hg
Pressure 1021.5 hPa
Elevation 65
METAR KAWM 200053Z AUTO 18013KT 10SM FEW027 OVC037 03/M04 A3016 RMK AO2 SLP215 T00281039 TSNO
Observed Flight Rules
Jan-20 @ 00:53 UTC
(32 minutes ago)
VFR
Wind Visibility
180° at 13 knots 10 miles
Clouds
  • Few at 2,700' AGL
  • Overcast at 3,700' AGL
Temperature Dewpoint
3°C / 37°F -4°C / 25°F
Humidity Altimeter Pressure
60% 30.16" Hg 1021.5 hPa